Time;durP1;ratioP1;P1;durP2;ratioP2;P2;SDS_P1;SDS_P2;PMS_P1;PMS_P2;Temp;Humidity;BMP_temperature;BMP_pressure;BME280_temperature;BME280_humidity;BME280_pressure;Samples;Min_cycle;Max_cycle;Signal;HPM_P1;HPM_P2
2022/02/17 00:01:59;;;;;;;;;2.33;2.00;;;;;14.78;72.19;100429.47;6280295;22;45354;-81
2022/02/17 00:04:24;;;;;;;;;0.00;0.00;;;;;14.73;72.17;100410.22;6252037;22;45331;-80
2022/02/17 00:06:50;;;;;;;;;2.00;2.00;;;;;14.73;72.17;100415.50;6281135;22;45353;-82
2022/02/17 00:09:15;;;;;;;;;0.00;0.00;;;;;14.73;72.51;100426.09;6254121;22;46610;-80
2022/02/17 00:11:41;;;;;;;;;0.00;0.00;;;;;14.71;72.70;100420.84;6256972;22;45311;-81
2022/02/17 00:14:07;;;;;;;;;0.00;0.00;;;;;14.74;72.79;100431.34;6264793;22;45170;-81
2022/02/17 00:16:32;;;;;;;;;0.00;0.00;;;;;14.71;73.07;100428.78;6260303;22;45407;-81
2022/02/17 00:19:00;;;;;;;;;0.00;0.00;;;;;14.65;73.33;100406.84;6262638;22;46899;-81
2022/02/17 00:21:28;;;;;;;;;0.00;0.00;;;;;14.62;73.56;100426.38;6242192;22;45046;-80
2022/02/17 00:23:57;;;;;;;;;1.00;1.00;;;;;14.64;73.40;100437.78;6226824;22;45679;-79
2022/02/17 00:26:23;;;;;;;;;0.00;0.00;;;;;14.65;73.66;100454.53;6224431;22;45711;-80
2022/02/17 00:28:48;;;;;;;;;0.00;0.00;;;;;14.66;73.47;100461.63;6222798;22;46900;-80
2022/02/17 00:31:15;;;;;;;;;0.00;0.00;;;;;14.65;73.70;100454.53;6221567;22;45443;-82
2022/02/17 00:33:40;;;;;;;;;0.00;0.00;;;;;14.55;74.48;100459.22;6221571;22;45475;-80
2022/02/17 00:36:06;;;;;;;;;0.00;0.00;;;;;14.54;74.32;100468.06;6217490;22;45427;-81
2022/02/17 00:38:32;;;;;;;;;0.00;0.00;;;;;14.51;74.22;100453.13;6219197;22;45684;-80
2022/02/17 00:40:58;;;;;;;;;0.00;0.00;;;;;14.48;74.60;100460.25;6217736;22;45696;-82
2022/02/17 00:43:23;;;;;;;;;0.00;0.00;;;;;14.45;74.66;100489.47;6216772;22;45313;-82
2022/02/17 00:45:49;;;;;;;;;0.00;0.00;;;;;14.46;74.91;100484.13;6218194;22;45413;-80
2022/02/17 00:48:14;;;;;;;;;0.00;0.00;;;;;14.47;74.98;100507.06;6216822;22;45386;-79
2022/02/17 00:50:42;;;;;;;;;0.00;0.00;;;;;14.49;75.07;100493.78;6214963;22;45301;-82
2022/02/17 00:53:08;;;;;;;;;2.00;2.00;;;;;14.48;75.04;100513.22;6214766;22;45479;-81
2022/02/17 00:55:37;;;;;;;;;0.00;0.00;;;;;14.45;74.56;100500.06;6217921;22;45540;-83
2022/02/17 00:58:05;;;;;;;;;0.00;0.00;;;;;14.46;74.97;100513.28;6217443;22;47131;-83
2022/02/17 01:00:40;;;;;;;;;0.00;0.00;;;;;14.46;74.70;100507.06;6216861;22;45399;-82
2022/02/17 01:03:05;;;;;;;;;0.00;0.00;;;;;14.40;74.44;100505.44;6215211;22;45409;-81
2022/02/17 01:05:32;;;;;;;;;1.00;1.00;;;;;14.47;73.90;100528.25;6215589;22;45561;-81
2022/02/17 01:07:58;;;;;;;;;0.00;0.00;;;;;14.46;74.00;100522.97;6216793;22;47295;-82
2022/02/17 01:10:24;;;;;;;;;0.00;0.00;;;;;14.49;73.53;100528.22;6215960;22;45475;-82
2022/02/17 01:12:55;;;;;;;;;1.00;0.00;;;;;14.48;73.66;100540.56;6217918;22;45413;-84
2022/02/17 01:15:21;;;;;;;;;2.00;0.67;;;;;14.48;72.92;100514.09;6218988;22;45375;-81
2022/02/17 01:17:47;;;;;;;;;0.00;0.00;;;;;14.48;72.84;100505.28;6217642;22;47322;-82
2022/02/17 01:20:12;;;;;;;;;0.00;0.00;;;;;14.49;72.78;100525.56;6217914;22;45260;-81
2022/02/17 01:22:39;;;;;;;;;0.00;0.00;;;;;14.49;72.28;100515.84;6247852;22;45315;-83
2022/02/17 01:25:05;;;;;;;;;1.00;1.00;;;;;14.53;72.48;100514.88;6250601;22;45303;-81
2022/02/17 01:27:31;;;;;;;;;1.00;0.00;;;;;14.51;72.23;100518.44;6274722;22;47739;-83
2022/02/17 01:29:57;;;;;;;;;1.67;0.67;;;;;14.51;71.61;100540.53;6248155;22;45299;-82
2022/02/17 01:32:23;;;;;;;;;2.33;2.00;;;;;14.51;71.62;100545.84;6249838;22;45202;-82
2022/02/17 01:34:48;;;;;;;;;0.00;0.00;;;;;14.59;70.85;100558.03;6271273;22;45327;-82
2022/02/17 01:37:14;;;;;;;;;0.00;0.00;;;;;14.51;70.34;100536.97;6270954;22;46993;-81
2022/02/17 01:39:40;;;;;;;;;2.33;0.00;;;;;14.51;69.73;100590.88;6244480;22;45497;-82
2022/02/17 01:42:08;;;;;;;;;2.33;1.00;;;;;14.50;69.61;100583.81;6245956;22;45257;-82
2022/02/17 01:44:33;;;;;;;;;0.00;0.00;;;;;14.48;69.34;100575.00;6278379;22;45381;-83
2022/02/17 01:46:59;;;;;;;;;0.67;0.00;;;;;14.50;69.08;100564.38;6277853;22;45512;-82
2022/02/17 01:49:25;;;;;;;;;1.00;1.00;;;;;14.47;68.74;100575.06;6279624;22;45525;-83
2022/02/17 01:51:50;;;;;;;;;2.00;2.00;;;;;14.49;68.25;100570.59;6281474;22;45384;-82
2022/02/17 01:54:18;;;;;;;;;0.00;0.00;;;;;14.45;67.96;100579.50;6252836;22;45446;-82
2022/02/17 01:56:44;;;;;;;;;0.00;0.00;;;;;14.43;66.34;100568.94;6280436;22;45241;-82
2022/02/17 01:59:10;;;;;;;;;1.33;1.33;;;;;14.50;66.65;100577.63;6253305;22;45224;-82
2022/02/17 02:01:36;;;;;;;;;0.00;0.00;;;;;14.46;66.15;100598.03;6253939;22;45124;-82
2022/02/17 02:04:03;;;;;;;;;2.00;2.00;;;;;14.40;65.32;100602.59;6253296;22;45191;-82
2022/02/17 02:06:29;;;;;;;;;2.00;0.00;;;;;14.42;64.53;100608.72;6281724;22;45344;-80
2022/02/17 02:08:54;;;;;;;;;2.33;1.33;;;;;14.37;65.10;100597.34;6281005;22;45349;-82
2022/02/17 02:11:20;;;;;;;;;4.00;3.00;;;;;14.30;64.42;100592.19;6254202;22;45335;-81
2022/02/17 02:13:45;;;;;;;;;4.00;4.00;;;;;14.23;63.41;100609.13;6253278;22;45321;-82
2022/02/17 02:16:11;;;;;;;;;1.00;0.33;;;;;14.23;63.07;100624.13;6281210;22;46276;-82
2022/02/17 02:18:37;;;;;;;;;3.00;3.00;;;;;14.20;62.84;100616.25;6281905;22;45358;-82
2022/02/17 02:21:03;;;;;;;;;1.00;1.00;;;;;14.17;62.34;100616.31;6281517;22;45171;-82
2022/02/17 02:23:30;;;;;;;;;1.00;1.00;;;;;14.10;60.94;100611.13;6253699;22;45233;-81
2022/02/17 02:25:56;;;;;;;;;2.00;0.00;;;;;14.03;61.51;100600.69;6279814;22;46232;-81
2022/02/17 02:28:27;;;;;;;;;3.67;1.00;;;;;14.05;60.86;100605.06;6253445;22;45338;-82
2022/02/17 02:30:53;;;;;;;;;4.00;2.00;;;;;13.97;60.84;100595.53;6281829;22;45164;-82
2022/02/17 02:33:20;;;;;;;;;3.67;2.00;;;;;13.97;60.98;100609.63;6254619;22;45407;-80
2022/02/17 02:35:46;;;;;;;;;1.33;1.33;;;;;13.93;61.27;100622.97;6254867;22;47237;-82
2022/02/17 02:38:12;;;;;;;;;2.00;2.00;;;;;13.94;61.45;100609.69;6255057;22;45185;-81
2022/02/17 02:40:39;;;;;;;;;2.00;2.00;;;;;13.95;61.27;100619.38;6254638;22;45261;-83
2022/02/17 02:43:05;;;;;;;;;0.00;0.00;;;;;14.02;61.59;100628.94;6255369;22;45370;-82
2022/02/17 02:45:32;;;;;;;;;2.00;0.00;;;;;14.01;61.32;100647.53;6282959;22;45372;-82
2022/02/17 02:47:58;;;;;;;;;3.00;2.00;;;;;13.97;61.85;100644.03;6283813;22;45322;-82
2022/02/17 02:50:24;;;;;;;;;0.33;0.00;;;;;14.01;62.02;100653.69;6256379;22;45113;-82
2022/02/17 02:52:52;;;;;;;;;2.00;1.00;;;;;13.94;61.68;100633.53;6279732;22;45201;-82
2022/02/17 02:55:18;;;;;;;;;2.00;2.00;;;;;14.00;61.73;100635.16;6255344;22;47266;-81
2022/02/17 02:57:44;;;;;;;;;2.67;1.67;;;;;14.02;61.61;100623.66;6282916;22;45339;-83
2022/02/17 03:00:10;;;;;;;;;2.33;1.67;;;;;14.01;60.40;100655.47;6283471;22;45322;-82
2022/02/17 03:02:35;;;;;;;;;2.00;1.33;;;;;14.00;60.11;100640.47;6256252;22;45335;-82
2022/02/17 03:05:01;;;;;;;;;4.67;2.67;;;;;14.00;60.36;100651.06;6283721;22;45532;-83
2022/02/17 03:07:27;;;;;;;;;4.33;3.67;;;;;13.95;59.82;100648.50;6283800;22;45373;-82
2022/02/17 03:09:53;;;;;;;;;3.67;3.67;;;;;13.94;58.91;100646.75;6284028;22;45318;-83
2022/02/17 03:12:18;;;;;;;;;2.67;2.67;;;;;13.94;59.41;100636.16;6283308;22;45096;-82
2022/02/17 03:14:44;;;;;;;;;2.00;2.00;;;;;13.98;59.15;100640.50;6256605;22;46003;-82
2022/02/17 03:17:10;;;;;;;;;4.00;3.00;;;;;13.95;58.51;100637.03;6255900;22;45926;-83
2022/02/17 03:19:36;;;;;;;;;6.00;2.67;;;;;13.94;58.25;100648.53;6283843;22;45136;-82
2022/02/17 03:22:02;;;;;;;;;4.33;2.33;;;;;13.86;57.88;100638.97;6255711;22;45442;-82
2022/02/17 03:24:28;;;;;;;;;1.67;1.67;;;;;13.85;57.51;100661.03;6255894;22;47185;-81
2022/02/17 03:26:54;;;;;;;;;4.00;2.00;;;;;13.78;56.84;100645.31;6254953;22;45335;-83
2022/02/17 03:29:20;;;;;;;;;5.33;4.33;;;;;13.74;57.10;100647.16;6255861;22;45299;-83
2022/02/17 03:31:46;;;;;;;;;4.33;3.00;;;;;13.72;56.27;100671.88;6255907;22;45868;-83
2022/02/17 03:34:12;;;;;;;;;3.33;3.33;;;;;13.68;56.30;100639.28;6256869;22;47263;-83
2022/02/17 03:36:38;;;;;;;;;3.00;2.00;;;;;13.63;55.10;100684.38;6255783;22;45240;-81
2022/02/17 03:39:04;;;;;;;;;3.00;2.00;;;;;13.58;55.55;100673.00;6283943;22;45153;-82
2022/02/17 03:41:32;;;;;;;;;7.00;4.00;;;;;13.50;55.27;100666.97;6255750;22;45340;-83
2022/02/17 03:43:58;;;;;;;;;4.00;3.00;;;;;13.50;55.35;100656.38;6283145;22;46407;-82
2022/02/17 03:46:23;;;;;;;;;2.33;2.33;;;;;13.46;55.04;100681.13;6255609;22;45353;-82
2022/02/17 03:48:49;;;;;;;;;4.00;3.00;;;;;13.40;55.09;100663.59;6284090;22;45356;-82
2022/02/17 03:51:14;;;;;;;;;8.00;6.00;;;;;13.40;55.20;100660.06;6282441;22;45355;-83
2022/02/17 03:53:40;;;;;;;;;5.67;4.00;;;;;13.35;56.14;100697.16;6257118;22;46876;-83
2022/02/17 03:56:05;;;;;;;;;6.33;5.67;;;;;13.38;55.81;100690.97;6284315;22;45299;-82
2022/02/17 04:01:20;;;;;;;;;7.00;6.00;;;;;13.34;56.29;100721.88;6285115;22;45224;-82
2022/02/17 04:03:46;;;;;;;;;6.00;3.67;;;;;13.27;56.58;100693.78;6257387;22;47574;-82
2022/02/17 04:06:14;;;;;;;;;6.00;2.67;;;;;13.31;57.24;100721.94;6257569;22;45181;-84
2022/02/17 04:08:42;;;;;;;;;7.00;5.00;;;;;13.26;57.22;100713.19;6256478;22;45243;-84
2022/02/17 04:11:08;;;;;;;;;5.00;2.00;;;;;13.26;57.61;100726.41;6285099;22;45359;-82
2022/02/17 04:13:34;;;;;;;;;4.00;3.00;;;;;13.25;57.72;100736.06;6257043;22;46079;-83
2022/02/17 04:15:59;;;;;;;;;4.33;3.33;;;;;13.26;57.52;100747.56;6256700;22;45787;-82
2022/02/17 04:18:25;;;;;;;;;6.00;4.00;;;;;13.24;57.46;100736.09;6255824;22;45173;-81
2022/02/17 04:21:04;;;;;;;;;10.00;6.00;;;;;13.20;56.94;100731.72;6283694;22;45250;-83
2022/02/17 04:23:30;;;;;;;;;6.67;6.00;;;;;13.18;56.24;100752.06;6254443;22;46810;-82
2022/02/17 04:25:55;;;;;;;;;8.00;4.00;;;;;13.12;56.03;100752.97;6282758;22;45315;-83
2022/02/17 04:28:24;;;;;;;;;5.00;4.00;;;;;13.08;55.95;100734.56;6254116;22;45398;-82
2022/02/17 04:30:50;;;;;;;;;7.00;6.00;;;;;13.08;55.06;100790.94;6282341;22;45326;-84
2022/02/17 04:33:16;;;;;;;;;5.67;3.67;;;;;13.09;55.19;100760.09;6282842;22;45538;-83
2022/02/17 04:35:41;;;;;;;;;9.00;4.67;;;;;12.99;54.70;100777.84;6254764;22;45634;-83
2022/02/17 04:38:07;;;;;;;;;5.00;3.67;;;;;12.96;54.39;100792.00;6254122;22;45179;-81
2022/02/17 04:43:16;;;;;;;;;9.00;6.25;;;;;12.94;54.04;100812.25;6283790;22;45219;-82
2022/02/17 04:45:44;;;;;;;;;5.00;3.00;;;;;12.88;54.38;100807.03;6255765;22;44683;-82
2022/02/17 04:48:13;;;;;;;;;6.00;4.67;;;;;12.91;54.25;100824.63;6256565;22;45254;-82
2022/02/17 04:50:39;;;;;;;;;6.33;3.00;;;;;12.85;53.99;100819.41;6255999;22;45192;-83
2022/02/17 04:53:04;;;;;;;;;7.33;3.00;;;;;12.85;54.76;100827.34;6255837;22;46824;-83
2022/02/17 04:55:30;;;;;;;;;4.33;4.33;;;;;12.73;54.69;100812.53;6255822;22;44600;-83
2022/02/17 04:58:19;;;;;;;;;12.25;7.00;;;;;12.67;54.25;100853.09;6255518;22;45241;-83
2022/02/17 05:00:45;;;;;;;;;3.67;3.67;;;;;12.66;54.84;100832.84;6232533;22;45540;-83
2022/02/17 05:03:11;;;;;;;;;7.67;5.67;;;;;12.71;54.42;100841.59;6281252;22;47181;-81
2022/02/17 05:05:39;;;;;;;;;6.33;3.67;;;;;12.65;54.32;100846.06;6255557;22;45236;-83
2022/02/17 05:08:05;;;;;;;;;6.00;4.00;;;;;12.67;54.30;100854.84;6280530;22;45179;-82
2022/02/17 05:10:31;;;;;;;;;8.75;6.50;;;;;12.58;54.67;100846.13;6255286;22;45648;-82
2022/02/17 05:12:57;;;;;;;;;4.67;3.33;;;;;12.64;54.06;100860.16;6280362;22;47621;-83
2022/02/17 05:15:23;;;;;;;;;10.00;7.50;;;;;12.57;53.97;100849.66;6254473;22;45247;-83
2022/02/17 05:17:49;;;;;;;;;9.33;5.67;;;;;12.56;54.12;100860.22;6280430;22;45404;-82
2022/02/17 05:20:14;;;;;;;;;6.00;6.00;;;;;12.56;54.00;100869.06;6255471;22;45817;-83
2022/02/17 05:22:44;;;;;;;;;8.00;5.00;;;;;12.57;53.56;100888.41;6254397;22;47486;-83
2022/02/17 05:25:13;;;;;;;;;8.25;5.00;;;;;12.51;53.23;100897.25;6280692;22;45199;-83
2022/02/17 05:27:40;;;;;;;;;7.50;4.25;;;;;12.49;53.19;100898.16;6255870;22;45386;-82
2022/02/17 05:30:07;;;;;;;;;12.00;4.75;;;;;12.43;53.23;100895.56;6256434;22;45408;-83
2022/02/17 05:32:40;;;;;;;;;6.50;5.00;;;;;12.47;53.34;100913.16;6283146;22;46261;-83
2022/02/17 05:35:07;;;;;;;;;10.50;5.25;;;;;12.46;53.36;100912.28;6253559;22;45381;-83
2022/02/17 05:37:33;;;;;;;;;6.25;4.00;;;;;12.38;53.18;100910.59;6254902;22;44767;-83
2022/02/17 05:39:59;;;;;;;;;4.00;1.75;;;;;12.41;53.46;100923.75;6253837;22;45180;-83
2022/02/17 05:42:27;;;;;;;;;9.00;5.00;;;;;12.33;53.23;100916.78;6254275;22;47018;-81
2022/02/17 05:45:00;;;;;;;;;7.50;5.00;;;;;12.33;53.29;100916.78;6253569;22;45562;-82
2022/02/17 05:47:25;;;;;;;;;11.00;6.25;;;;;12.34;53.43;100928.19;6281114;22;45160;-83
2022/02/17 05:49:53;;;;;;;;;5.75;5.25;;;;;12.26;53.63;100916.84;6280942;22;45106;-82
2022/02/17 05:52:19;;;;;;;;;10.75;6.50;;;;;12.33;53.59;100937.03;6280544;22;46062;-83
2022/02/17 05:54:44;;;;;;;;;6.00;5.75;;;;;12.25;53.57;100923.88;6252785;22;45425;-83
2022/02/17 05:57:10;;;;;;;;;6.50;4.50;;;;;12.20;53.79;100912.47;6279655;22;45327;-82
2022/02/17 05:59:38;;;;;;;;;6.50;5.00;;;;;12.23;53.83;100917.72;6254670;22;45529;-83
2022/02/17 06:02:05;;;;;;;;;8.00;5.00;;;;;12.21;54.29;100919.50;6253358;22;46181;-84
2022/02/17 06:04:48;;;;;;;;;;;;;;;;;;;;;
2022/02/17 06:07:23;;;;;;;;;10.50;5.25;;;;;12.20;54.04;100944.16;6277975;22;70008;-84
2022/02/17 06:09:49;;;;;;;;;8.75;7.00;;;;;12.17;54.53;100945.94;6279494;22;45266;-83
2022/02/17 06:12:14;;;;;;;;;5.75;5.00;;;;;12.09;54.92;100940.72;6251149;22;46896;-83
2022/02/17 06:14:40;;;;;;;;;12.25;6.25;;;;;12.10;54.93;100955.66;6251950;22;45184;-83
2022/02/17 06:17:06;;;;;;;;;6.00;5.50;;;;;12.17;55.01;100948.59;6252067;22;45244;-83
2022/02/17 06:19:31;;;;;;;;;9.75;8.00;;;;;12.16;55.39;100941.53;6279662;22;45342;-82
2022/02/17 06:21:57;;;;;;;;;9.00;5.50;;;;;12.11;55.37;100933.69;6279200;22;45395;-84
2022/02/17 06:24:22;;;;;;;;;9.00;4.00;;;;;12.14;55.68;100944.22;6251727;22;45137;-83
2022/02/17 06:26:48;;;;;;;;;6.00;5.00;;;;;12.22;55.83;100957.34;6251822;22;45365;-83
2022/02/17 06:29:14;;;;;;;;;12.25;7.00;;;;;12.19;56.07;100968.81;6279873;22;45432;-83
2022/02/17 06:31:39;;;;;;;;;6.25;5.25;;;;;12.18;55.95;100974.94;6251844;22;48021;-83
2022/02/17 06:34:05;;;;;;;;;9.25;6.25;;;;;12.17;56.11;100980.25;6252131;22;45371;-82
2022/02/17 06:36:31;;;;;;;;;16.00;7.50;;;;;12.15;56.07;100980.25;6251989;22;45361;-82
2022/02/17 06:38:56;;;;;;;;;14.25;8.50;;;;;12.14;56.20;101000.50;6251519;22;45378;-83
2022/02/17 06:41:23;;;;;;;;;14.00;8.50;;;;;12.09;56.19;100996.13;6251266;22;48008;-82
2022/02/17 06:43:49;;;;;;;;;10.00;6.75;;;;;12.06;56.24;100997.03;6279650;22;45098;-82
2022/02/17 06:46:15;;;;;;;;;13.75;7.75;;;;;12.02;56.74;100984.72;6251788;22;45229;-82
2022/02/17 06:48:41;;;;;;;;;9.75;6.25;;;;;12.11;56.56;101008.44;6277401;22;45183;-82
2022/02/17 06:51:07;;;;;;;;;13.75;9.50;;;;;12.01;56.60;100996.19;6251258;22;48149;-82
2022/02/17 06:53:33;;;;;;;;;10.00;5.00;;;;;12.05;56.32;101007.59;6250999;22;45424;-81
2022/02/17 06:55:59;;;;;;;;;13.00;9.25;;;;;12.00;56.65;100990.91;6279433;22;45377;-82
2022/02/17 06:58:49;;;;;;;;;;;;;;;;;;;;;
2022/02/17 07:01:17;;;;;;;;;8.25;5.50;;;;;12.00;56.71;101010.28;6277468;22;74889;-85
2022/02/17 07:03:43;;;;;;;;;17.25;11.00;;;;;11.98;56.50;101006.75;6251291;22;45983;-83
2022/02/17 07:06:24;;;;;;;;;;;;;;;;;;;;;
2022/02/17 07:08:59;;;;;;;;;10.50;7.00;;;;;11.99;56.88;101024.31;6276969;22;73689;-84
2022/02/17 07:15:40;;;;;;;;;13.50;7.25;;;;;11.94;56.58;101023.47;6184400;23;45426;-82
2022/02/17 07:18:17;;;;;;;;;12.25;9.25;;;;;11.94;56.70;101036.66;6158919;23;45567;-85
2022/02/17 07:21:57;;;;;;;;;;;;;;;;;;;;;
2022/02/17 07:24:35;;;;;;;;;18.75;11.00;;;;;11.96;56.31;101047.22;6157822;23;45536;-83
2022/02/17 07:27:01;;;;;;;;;10.25;8.00;;;;;11.95;56.07;101067.47;6184319;23;45232;-82
2022/02/17 07:29:36;;;;;;;;;10.50;8.00;;;;;11.95;56.43;101059.53;6159422;23;45318;-84
2022/02/17 07:32:09;;;;;;;;;14.25;7.00;;;;;11.91;56.10;101070.97;6252738;22;45413;-82
2022/02/17 07:34:37;;;;;;;;;17.50;10.00;;;;;11.94;56.30;101076.25;6246518;22;46930;-82
2022/02/17 07:37:03;;;;;;;;;10.25;5.75;;;;;12.01;56.04;101085.03;6245699;22;45384;-82
2022/02/17 07:39:39;;;;;;;;;15.25;12.25;;;;;11.99;56.17;101087.66;6248252;22;45381;-83
2022/02/17 07:42:05;;;;;;;;;13.50;8.50;;;;;12.02;56.27;101100.84;6245588;22;45378;-83
2022/02/17 07:44:31;;;;;;;;;14.00;7.00;;;;;12.04;56.45;101112.28;6244490;22;45398;-82
2022/02/17 07:46:57;;;;;;;;;11.00;7.50;;;;;11.99;55.96;101098.22;6245742;22;45639;-81
2022/02/17 07:49:25;;;;;;;;;10.50;8.25;;;;;12.07;56.02;101106.09;6247071;22;45358;-81
2022/02/17 07:51:51;;;;;;;;;8.00;6.25;;;;;12.04;55.92;101101.72;6245635;22;45230;-82
2022/02/17 07:54:17;;;;;;;;;14.50;10.00;;;;;12.02;56.15;101081.50;6245257;22;46000;-82
2022/02/17 07:56:51;;;;;;;;;14.25;6.00;;;;;12.08;56.05;101114.03;6246113;22;45130;-82
2022/02/17 07:59:19;;;;;;;;;15.00;9.75;;;;;12.06;56.32;101085.88;6245317;22;45233;-82
2022/02/17 08:01:47;;;;;;;;;14.25;10.50;;;;;12.02;55.96;101084.13;6245941;22;45474;-81
2022/02/17 08:04:12;;;;;;;;;9.50;7.00;;;;;12.12;56.26;101117.53;6244997;22;47235;-82
2022/02/17 08:06:38;;;;;;;;;11.25;7.50;;;;;12.09;56.33;101104.34;6245222;22;45269;-81
2022/02/17 08:09:04;;;;;;;;;14.25;9.25;;;;;12.11;56.42;101095.53;6246815;22;45301;-79
2022/02/17 08:11:30;;;;;;;;;7.25;5.25;;;;;12.18;56.22;101111.34;6247897;22;45191;-83
2022/02/17 08:13:56;;;;;;;;;14.50;9.00;;;;;12.28;56.47;101121.84;6271231;22;48012;-83
2022/02/17 08:16:23;;;;;;;;;9.25;6.25;;;;;12.27;56.18;101109.53;6247976;22;45179;-82
2022/02/17 08:18:49;;;;;;;;;15.75;8.00;;;;;12.38;56.55;101124.47;6247964;22;45373;-83
2022/02/17 08:21:14;;;;;;;;;16.75;10.00;;;;;12.41;56.29;101127.94;6250199;22;45414;-81
2022/02/17 08:23:39;;;;;;;;;12.75;8.25;;;;;12.44;56.11;101134.97;6251484;22;47804;-81
2022/02/17 08:26:07;;;;;;;;;9.75;3.50;;;;;12.43;56.36;101146.41;6250145;22;45388;-84
2022/02/17 08:28:33;;;;;;;;;13.75;9.75;;;;;12.42;56.14;101166.66;6251640;22;45182;-82
2022/02/17 08:30:59;;;;;;;;;9.75;6.75;;;;;12.43;56.11;101156.97;6250494;22;45232;-83
2022/02/17 08:33:24;;;;;;;;;14.00;7.50;;;;;12.47;56.54;101151.66;6278996;22;45304;-82
2022/02/17 08:35:50;;;;;;;;;10.00;7.00;;;;;12.43;56.19;101139.38;6250224;22;45236;-79
2022/02/17 08:38:15;;;;;;;;;14.00;7.00;;;;;12.49;56.25;101149.03;6279570;22;45194;-82
2022/02/17 08:40:41;;;;;;;;;9.00;5.25;;;;;12.51;56.06;101160.44;6250418;22;45806;-80
2022/02/17 08:43:09;;;;;;;;;16.75;9.75;;;;;12.58;56.08;101172.75;6251467;22;47097;-82
2022/02/17 08:45:39;;;;;;;;;9.25;7.25;;;;;12.53;56.20;101174.53;6278961;22;45350;-82
2022/02/17 08:48:06;;;;;;;;;11.25;9.00;;;;;12.54;56.49;101176.31;6250501;22;45216;-80
2022/02/17 08:50:32;;;;;;;;;10.00;7.25;;;;;12.63;56.61;101183.31;6278295;22;45110;-81
2022/02/17 08:52:58;;;;;;;;;11.25;10.00;;;;;12.61;56.10;101154.22;6277922;22;46135;-82
2022/02/17 08:55:23;;;;;;;;;9.50;7.75;;;;;12.65;56.04;101171.84;6250065;22;45433;-82
2022/02/17 08:57:51;;;;;;;;;11.25;7.75;;;;;12.74;56.25;101176.19;6250156;22;45407;-81
2022/02/17 09:00:17;;;;;;;;;10.50;6.75;;;;;12.73;56.02;101162.09;6250575;22;45920;-81
2022/02/17 09:02:43;;;;;;;;;8.75;6.25;;;;;12.82;56.26;101169.09;6250462;22;46173;-81
2022/02/17 09:05:08;;;;;;;;;10.50;6.00;;;;;12.81;55.89;101159.41;6250200;22;45176;-80
2022/02/17 09:07:34;;;;;;;;;12.00;9.00;;;;;12.91;56.11;101184.91;6278393;22;45201;-81
2022/02/17 09:09:59;;;;;;;;;14.00;11.00;;;;;12.91;55.71;101163.75;6250299;22;45477;-81
2022/02/17 09:12:33;;;;;;;;;11.00;7.75;;;;;12.96;55.50;101174.28;6250105;22;47972;-80
2022/02/17 09:14:58;;;;;;;;;13.75;10.00;;;;;12.96;55.36;101179.56;6250710;22;45196;-81
2022/02/17 09:17:25;;;;;;;;;13.00;8.75;;;;;12.94;55.19;101190.16;6249827;22;45182;-80
2022/02/17 09:19:51;;;;;;;;;11.75;10.00;;;;;12.91;55.13;101179.63;6277624;22;45399;-79
2022/02/17 09:22:16;;;;;;;;;10.33;7.67;;;;;12.97;55.31;101194.56;6249498;22;47297;-80
2022/02/17 09:24:42;;;;;;;;;14.00;9.75;;;;;13.00;55.33;101199.81;6277755;22;45209;-80
2022/02/17 09:27:07;;;;;;;;;8.50;6.25;;;;;12.99;55.30;101192.75;6249436;22;45228;-78
2022/02/17 09:29:36;;;;;;;;;11.75;7.50;;;;;12.95;55.38;101191.91;6273621;22;45377;-82
2022/02/17 09:32:35;;;;;;;;;13.25;10.00;;;;;12.98;55.19;101215.66;6273161;22;47223;-87
2022/02/17 09:35:02;;;;;;;;;10.25;7.50;;;;;12.99;55.07;101216.53;6224709;22;45498;-83
2022/02/17 09:37:27;;;;;;;;;14.00;8.50;;;;;12.99;54.92;101224.47;6278155;22;45222;-82
2022/02/17 09:39:53;;;;;;;;;18.25;12.00;;;;;12.92;54.87;101239.50;6247899;22;45451;-84
2022/02/17 09:42:35;;;;;;;;;;;;;;;;;;;;;
2022/02/17 09:45:03;;;;;;;;;12.75;10.25;;;;;12.95;54.16;101251.81;6275592;22;73529;-83
2022/02/17 09:47:29;;;;;;;;;11.00;6.00;;;;;12.94;54.52;101242.16;6250032;22;45340;-84
2022/02/17 09:50:14;;;;;;;;;14.25;11.00;;;;;13.01;54.64;101244.72;6250073;22;45490;-84
2022/02/17 09:52:42;;;;;;;;;13.00;4.75;;;;;13.03;54.77;101247.38;6249027;22;46412;-81
2022/02/17 09:55:11;;;;;;;;;11.50;9.25;;;;;13.17;54.53;101244.63;6249535;22;45723;-82
2022/02/17 09:57:39;;;;;;;;;11.50;8.25;;;;;13.23;54.60;101252.53;6276733;22;45187;-84
2022/02/17 10:00:11;;;;;;;;;10.00;8.50;;;;;13.24;54.13;101230.50;6276188;22;45283;-83
2022/02/17 10:02:37;;;;;;;;;8.00;7.00;;;;;13.33;54.12;101248.97;6249546;22;47091;-83
2022/02/17 10:05:05;;;;;;;;;10.25;8.00;;;;;13.30;53.73;101242.84;6249620;22;45236;-83
2022/02/17 10:07:35;;;;;;;;;11.25;9.00;;;;;13.40;54.22;101258.63;6277662;22;45229;-84
2022/02/17 10:10:13;;;;;;;;;15.75;7.75;;;;;13.47;54.15;101256.78;6248133;22;45189;-84
2022/02/17 10:13:20;;;;;;;;;12.25;8.00;;;;;13.62;53.97;101256.69;6276353;22;46197;-83
2022/02/17 10:16:02;;;;;;;;;;;;;;;;;;;;;
2022/02/17 10:18:30;;;;;;;;;11.50;5.50;;;;;13.65;53.27;101264.59;6276598;22;68967;-84
2022/02/17 10:21:06;;;;;;;;;7.00;4.67;;;;;13.79;53.40;101275.09;6248709;22;45486;-84
2022/02/17 10:23:43;;;;;;;;;10.25;6.75;;;;;13.79;52.66;101267.16;6277447;22;46351;-85
2022/02/17 10:26:21;;;;;;;;;8.25;7.00;;;;;13.82;52.99;101272.41;6277005;22;45216;-85
2022/02/17 10:28:57;;;;;;;;;7.67;5.67;;;;;13.80;52.77;101275.97;6252199;22;45244;-85
2022/02/17 10:31:37;;;;;;;;;;;;;;;;;;;;;
2022/02/17 10:34:17;;;;;;;;;;;;;;;;;;;;;
2022/02/17 10:36:45;;;;;;;;;10.75;7.25;;;;;13.99;52.66;101298.72;6277820;22;73328;-83
2022/02/17 10:39:43;;;;;;;;;9.67;6.67;;;;;13.96;52.28;101290.81;6279023;22;45297;-82
2022/02/17 10:42:23;;;;;;;;;;;;;;;;;;;;;
2022/02/17 10:44:49;;;;;;;;;10.75;7.50;;;;;14.01;51.61;101269.59;6277126;22;75164;-83
2022/02/17 10:47:23;;;;;;;;;4.00;3.00;;;;;13.97;51.51;101289.91;6253937;22;45255;-83
2022/02/17 10:49:58;;;;;;;;;9.00;6.33;;;;;14.11;51.34;101301.28;6254727;22;45303;-83
2022/02/17 10:52:33;;;;;;;;;12.67;10.00;;;;;14.16;51.25;101310.94;6278468;22;45393;-83
2022/02/17 10:55:25;;;;;;;;;13.67;9.00;;;;;14.18;50.62;101310.03;6253822;22;47392;-83
2022/02/17 10:57:51;;;;;;;;;10.00;6.00;;;;;14.21;50.42;101310.00;6253908;22;45323;-83
2022/02/17 11:00:32;;;;;;;;;;;;;;;;;;;;;
2022/02/17 11:03:04;;;;;;;;;6.33;5.00;;;;;14.37;50.69;101323.97;6295267;22;73033;-83
2022/02/17 11:05:37;;;;;;;;;10.50;6.75;;;;;14.30;49.54;101336.41;6270569;22;46780;-82
2022/02/17 11:08:09;;;;;;;;;11.25;6.25;;;;;14.30;49.57;101347.00;6295697;22;44938;-84
2022/02/17 11:10:36;;;;;;;;;7.00;5.33;;;;;14.23;49.53;101340.00;6267812;22;44686;-83
2022/02/17 11:13:22;;;;;;;;;9.00;7.00;;;;;14.17;49.62;101344.47;6295215;22;45141;-85
2022/02/17 11:16:20;;;;;;;;;;;;;;;;;;;;;
2022/02/17 11:18:47;;;;;;;;;8.00;6.00;;;;;14.19;49.87;101347.97;6295572;22;71022;-84
2022/02/17 11:21:45;;;;;;;;;5.67;4.67;;;;;14.23;49.56;101342.63;6280275;22;45466;-85
2022/02/17 11:24:23;;;;;;;;;8.00;5.00;;;;;14.25;49.88;101329.41;6249936;22;45257;-87
2022/02/17 11:27:23;;;;;;;;;;;;;;;;;;;;;
2022/02/17 11:29:56;;;;;;;;;7.00;5.00;;;;;14.52;48.84;101339.75;6284908;22;71478;-85
2022/02/17 11:35:53;;;;;;;;;6.33;4.00;;;;;14.67;49.06;101329.84;6206533;22;45663;-82
2022/02/17 11:38:55;;;;;;;;;5.00;4.00;;;;;14.80;48.56;101341.22;6251714;22;46743;-86
2022/02/17 11:41:27;;;;;;;;;8.67;4.67;;;;;14.86;48.43;101319.91;6254821;22;46144;-85
2022/02/17 11:44:21;;;;;;;;;7.33;4.00;;;;;14.94;47.44;101341.91;6278606;22;45505;-85
2022/02/17 11:46:55;;;;;;;;;7.00;5.00;;;;;14.99;47.07;101334.78;6251627;22;45567;-84
2022/02/17 11:49:42;;;;;;;;;5.67;5.67;;;;;15.05;46.80;101345.34;6250106;22;46649;-85
2022/02/17 11:52:53;;;;;;;;;4.00;3.33;;;;;15.07;46.45;101335.56;6250440;22;45378;-85
2022/02/17 11:55:21;;;;;;;;;5.00;3.00;;;;;15.28;45.40;101352.09;6151786;23;45467;-84
2022/02/17 11:58:38;;;;;;;;;4.67;3.00;;;;;15.30;45.33;101321.13;6156080;23;45475;-84
2022/02/17 12:01:23;;;;;;;;;5.67;4.00;;;;;15.47;44.27;101342.97;6106327;23;47908;-83